createdAt,value
2023-01-17T00:01:45.755Z,1.37
2023-01-17T00:04:34.904Z,1.03
2023-01-17T00:07:24.282Z,1.13
2023-01-17T00:09:57.071Z,0.97
2023-01-17T00:12:29.903Z,1.50
2023-01-17T00:15:03.087Z,1.70
2023-01-17T00:17:38.778Z,1.73
2023-01-17T00:20:34.245Z,1.30
2023-01-17T00:23:28.590Z,1.30
2023-01-17T00:26:12.504Z,3.23
2023-01-17T00:28:44.519Z,1.00
2023-01-17T00:31:17.323Z,1.37
2023-01-17T00:33:49.365Z,1.40
2023-01-17T00:36:18.464Z,1.13
2023-01-17T00:38:49.107Z,1.23
2023-01-17T00:41:16.345Z,1.10
2023-01-17T00:44:06.570Z,1.73
2023-01-17T00:46:53.104Z,1.47
2023-01-17T00:49:43.647Z,1.00
2023-01-17T00:52:31.922Z,2.60
2023-01-17T00:55:19.095Z,2.13
2023-01-17T00:58:08.205Z,2.03
2023-01-17T01:00:54.867Z,3.40
2023-01-17T01:03:44.206Z,1.93
2023-01-17T01:06:33.901Z,2.20
2023-01-17T01:09:22.244Z,2.73
2023-01-17T01:12:08.243Z,1.80
2023-01-17T01:14:58.302Z,1.67
2023-01-17T01:17:44.832Z,1.57
2023-01-17T01:20:31.938Z,3.37
2023-01-17T01:23:24.666Z,3.60
2023-01-17T01:26:12.031Z,2.43
2023-01-17T01:28:58.862Z,2.13
2023-01-17T01:31:48.254Z,2.23
2023-01-17T01:34:15.933Z,2.07
2023-01-17T01:36:45.768Z,3.23
2023-01-17T01:39:21.846Z,3.17
2023-01-17T01:41:55.054Z,2.00
2023-01-17T01:44:49.455Z,2.47
2023-01-17T01:47:28.455Z,2.37
2023-01-17T01:50:03.248Z,2.37
2023-01-17T01:52:50.749Z,1.27
2023-01-17T01:55:34.128Z,2.17
2023-01-17T01:58:21.169Z,2.60
2023-01-17T02:00:53.413Z,1.53
2023-01-17T02:03:27.456Z,1.70
2023-01-17T02:06:04.980Z,2.13
2023-01-17T02:08:42.164Z,2.47
2023-01-17T02:11:13.181Z,1.83
2023-01-17T02:13:47.430Z,2.03
2023-01-17T02:16:54.063Z,2.90
2023-01-17T02:19:57.591Z,2.03
2023-01-17T02:23:01.818Z,1.07
2023-01-17T02:26:12.483Z,1.47
2023-01-17T02:29:27.318Z,1.87
2023-01-17T02:32:22.307Z,0.90
2023-01-17T02:35:11.394Z,2.90
2023-01-17T02:38:07.431Z,1.67
2023-01-17T02:40:49.801Z,1.70
2023-01-17T02:43:24.597Z,2.10
2023-01-17T02:45:54.755Z,1.43
2023-01-17T02:48:35.279Z,1.93
2023-01-17T02:51:11.337Z,1.77
2023-01-17T02:54:05.958Z,1.10
2023-01-17T03:00:17.609Z,2.30
2023-01-17T03:03:23.626Z,1.33
2023-01-17T03:06:15.008Z,1.87
2023-01-17T03:09:00.289Z,1.80
2023-01-17T03:11:31.007Z,1.90
2023-01-17T03:14:02.295Z,1.93
2023-01-17T03:16:33.649Z,1.85
2023-01-17T03:19:04.150Z,1.80
2023-01-17T03:21:34.737Z,2.17
2023-01-17T03:24:06.199Z,2.43
2023-01-17T03:26:36.842Z,2.42
2023-01-17T03:29:07.031Z,1.77
2023-01-17T03:31:44.031Z,2.40
2023-01-17T03:34:16.745Z,2.80
2023-01-17T03:36:48.034Z,2.50
2023-01-17T03:39:20.358Z,1.63
2023-01-17T03:41:51.280Z,1.53
2023-01-17T03:44:25.210Z,1.55
2023-01-17T03:46:56.700Z,2.00
2023-01-17T03:49:35.037Z,1.93
2023-01-17T03:52:05.338Z,1.37
2023-01-17T03:54:42.769Z,1.70
2023-01-17T03:57:20.523Z,1.17
2023-01-17T03:59:58.240Z,1.80
2023-01-17T04:02:27.539Z,1.37
2023-01-17T04:05:00.636Z,1.53
2023-01-17T04:07:29.989Z,1.30
2023-01-17T04:09:58.346Z,1.77
2023-01-17T04:12:34.577Z,0.90
2023-01-17T04:15:05.739Z,1.40
2023-01-17T04:17:39.639Z,1.10
2023-01-17T04:20:35.918Z,1.43
2023-01-17T04:23:08.132Z,1.30
2023-01-17T04:25:39.492Z,1.37
2023-01-17T04:28:21.382Z,1.38
2023-01-17T04:30:49.422Z,1.63
2023-01-17T04:33:26.461Z,1.80
2023-01-17T04:36:04.071Z,1.43
2023-01-17T04:38:32.589Z,1.67
2023-01-17T04:43:48.230Z,2.30
2023-01-17T04:48:53.195Z,1.97
2023-01-17T04:51:25.394Z,2.90
2023-01-17T04:54:03.188Z,1.27
2023-01-17T04:56:39.848Z,1.83
2023-01-17T04:59:13.205Z,2.30
2023-01-17T05:01:44.574Z,1.13
2023-01-17T05:04:18.312Z,1.30
2023-01-17T05:06:48.606Z,2.20
2023-01-17T05:09:19.093Z,3.93
2023-01-17T05:11:52.235Z,3.13
2023-01-17T05:14:29.357Z,4.37
2023-01-17T05:17:09.823Z,3.90
2023-01-17T05:19:42.128Z,2.35
2023-01-17T05:22:18.233Z,2.80
2023-01-17T05:24:48.746Z,2.47
2023-01-17T05:27:17.403Z,3.20
2023-01-17T05:29:47.661Z,2.10
2023-01-17T05:32:17.911Z,3.20
2023-01-17T05:34:53.622Z,2.63
2023-01-17T05:37:22.467Z,2.70
2023-01-17T05:39:59.390Z,2.27
2023-01-17T05:42:39.229Z,2.53
2023-01-17T05:45:17.334Z,4.95
2023-01-17T05:48:14.031Z,3.03
2023-01-17T05:50:44.888Z,4.57
2023-01-17T05:53:29.697Z,4.53
2023-01-17T05:55:57.402Z,3.63
2023-01-17T05:58:28.894Z,3.17
2023-01-17T06:00:58.993Z,3.20
2023-01-17T06:06:13.405Z,3.53
2023-01-17T06:08:49.799Z,2.80
2023-01-17T06:11:25.422Z,1.97
2023-01-17T06:13:55.367Z,1.80
2023-01-17T06:16:32.710Z,1.30
2023-01-17T06:19:01.516Z,1.90
2023-01-17T06:21:35.600Z,2.47
2023-01-17T06:24:18.167Z,2.40
2023-01-17T06:26:46.661Z,1.30
2023-01-17T06:29:17.942Z,2.23
2023-01-17T06:31:53.818Z,1.95
2023-01-17T06:34:24.960Z,2.40
2023-01-17T06:37:08.370Z,2.13
2023-01-17T06:39:49.002Z,1.57
2023-01-17T06:42:19.517Z,2.13
2023-01-17T06:44:55.962Z,1.63
2023-01-17T06:47:28.267Z,2.10
2023-01-17T06:50:06.041Z,1.30
2023-01-17T06:52:40.411Z,1.60
2023-01-17T06:55:14.189Z,1.83
2023-01-17T06:57:52.228Z,1.97
2023-01-17T07:00:23.096Z,0.90
2023-01-17T07:02:54.982Z,1.47
2023-01-17T07:05:38.879Z,0.88
2023-01-17T07:08:24.819Z,1.67
2023-01-17T07:11:00.647Z,1.20
2023-01-17T07:13:37.768Z,2.00
2023-01-17T07:16:11.894Z,1.20
2023-01-17T07:18:49.438Z,1.40
2023-01-17T07:21:26.476Z,0.93
2023-01-17T07:24:12.103Z,0.83
2023-01-17T07:26:43.916Z,0.97
2023-01-17T07:29:21.385Z,2.17
2023-01-17T07:31:55.717Z,1.70
2023-01-17T07:34:27.063Z,1.93
2023-01-17T07:36:57.803Z,3.83
2023-01-17T07:42:16.803Z,3.57
2023-01-17T07:45:14.298Z,2.20
2023-01-17T07:47:56.819Z,1.87
2023-01-17T07:50:30.295Z,3.20
2023-01-17T07:53:04.197Z,2.57
2023-01-17T07:55:44.305Z,2.23
2023-01-17T07:58:16.318Z,2.43
2023-01-17T08:00:56.263Z,2.00
2023-01-17T08:03:26.889Z,2.30
2023-01-17T08:06:00.512Z,3.03
2023-01-17T08:08:39.410Z,3.43
2023-01-17T08:11:08.774Z,1.97
2023-01-17T08:13:42.304Z,3.53
2023-01-17T08:16:19.272Z,1.33
2023-01-17T08:18:48.576Z,2.37
2023-01-17T08:21:28.825Z,2.00
2023-01-17T08:24:12.152Z,2.93
2023-01-17T08:26:45.757Z,2.47
2023-01-17T08:29:20.482Z,5.67
2023-01-17T08:31:53.945Z,5.53
2023-01-17T08:34:33.230Z,3.73
2023-01-17T08:37:17.477Z,2.77
2023-01-17T08:39:51.000Z,4.67
2023-01-17T08:42:22.908Z,3.13
2023-01-17T08:45:00.950Z,4.57
2023-01-17T08:47:30.027Z,4.23
2023-01-17T08:50:05.183Z,4.10
2023-01-17T08:52:45.545Z,2.87
2023-01-17T08:55:20.142Z,4.00
2023-01-17T08:57:49.131Z,4.47
2023-01-17T09:00:20.037Z,2.47
2023-01-17T09:03:10.516Z,3.67
2023-01-17T09:05:48.501Z,3.63
2023-01-17T09:08:28.283Z,4.40
2023-01-17T09:10:59.098Z,3.97
2023-01-17T09:13:30.624Z,5.00
2023-01-17T09:16:02.713Z,5.03
2023-01-17T09:18:42.984Z,6.00
2023-01-17T09:21:14.636Z,4.20
2023-01-17T09:23:46.154Z,5.57
2023-01-17T09:26:26.050Z,4.32
2023-01-17T09:29:00.547Z,4.33
2023-01-17T09:31:45.806Z,4.30
2023-01-17T09:34:16.433Z,5.67
2023-01-17T09:36:50.720Z,6.03
2023-01-17T09:39:20.875Z,5.30
2023-01-17T09:41:58.600Z,4.43
2023-01-17T09:44:58.537Z,3.67
2023-01-17T09:47:45.160Z,3.27
2023-01-17T09:50:38.267Z,5.43
2023-01-17T09:53:29.017Z,5.67
2023-01-17T09:56:27.646Z,5.13
2023-01-17T09:59:33.099Z,6.33
2023-01-17T10:02:27.968Z,4.40
2023-01-17T10:05:38.509Z,3.47
2023-01-17T10:08:29.890Z,4.43
2023-01-17T10:11:51.835Z,5.23
2023-01-17T10:14:58.556Z,5.03
2023-01-17T10:17:59.407Z,5.30
2023-01-17T10:20:52.043Z,5.20
2023-01-17T10:23:39.385Z,5.30
2023-01-17T10:26:17.957Z,6.03
2023-01-17T10:29:14.467Z,5.30
2023-01-17T10:32:02.482Z,7.63
2023-01-17T10:34:45.804Z,3.93
2023-01-17T10:37:52.208Z,5.93
2023-01-17T10:40:46.657Z,6.17
2023-01-17T10:43:57.334Z,7.13
2023-01-17T10:46:48.786Z,6.53
2023-01-17T10:49:22.124Z,6.73
2023-01-17T10:52:38.221Z,4.33
2023-01-17T10:55:57.389Z,5.27
2023-01-17T10:58:34.553Z,8.40
2023-01-17T11:01:34.138Z,2.73
2023-01-17T11:04:06.043Z,5.67
2023-01-17T11:06:57.291Z,6.77
2023-01-17T11:09:45.056Z,5.80
2023-01-17T11:12:53.580Z,5.53
2023-01-17T11:15:28.942Z,7.23
2023-01-17T11:18:21.893Z,7.03
2023-01-17T11:20:55.097Z,5.80
2023-01-17T11:23:37.211Z,5.73
2023-01-17T11:28:44.296Z,4.05
2023-01-17T11:31:20.696Z,3.10
2023-01-17T11:34:34.315Z,5.00
2023-01-17T11:37:29.195Z,4.73
2023-01-17T11:40:43.825Z,3.00
2023-01-17T11:43:30.838Z,5.07
2023-01-17T11:46:29.036Z,6.00
2023-01-17T11:49:02.491Z,5.53
2023-01-17T11:51:42.018Z,5.20
2023-01-17T11:54:40.088Z,4.73
2023-01-17T11:57:21.875Z,5.53
2023-01-17T12:00:13.003Z,5.53
2023-01-17T12:03:13.204Z,6.73
2023-01-17T12:06:14.324Z,4.57
2023-01-17T12:09:04.796Z,5.33
2023-01-17T12:12:18.614Z,6.93
2023-01-17T12:15:22.673Z,5.20
2023-01-17T12:18:36.836Z,5.33
2023-01-17T12:21:25.248Z,5.30
2023-01-17T12:24:18.823Z,5.67
2023-01-17T12:27:25.845Z,5.90
2023-01-17T12:30:26.792Z,5.47
2023-01-17T12:33:32.096Z,7.43
2023-01-17T12:36:42.849Z,6.37
2023-01-17T12:39:22.437Z,6.77
2023-01-17T12:42:16.660Z,8.20
2023-01-17T12:45:32.961Z,7.77
2023-01-17T12:48:45.065Z,6.13
2023-01-17T12:51:41.010Z,7.60
2023-01-17T12:57:44.043Z,7.73
2023-01-17T13:04:10.331Z,6.13
2023-01-17T13:07:16.714Z,4.77
2023-01-17T13:09:59.826Z,5.07
2023-01-17T13:12:36.338Z,7.40
2023-01-17T13:15:24.755Z,4.17
2023-01-17T13:18:26.050Z,4.20
2023-01-17T13:21:38.004Z,4.47
2023-01-17T13:25:07.481Z,4.87
2023-01-17T13:28:25.984Z,4.27
2023-01-17T13:31:20.714Z,8.10
2023-01-17T13:34:16.246Z,5.33
2023-01-17T13:37:08.579Z,5.23
2023-01-17T13:40:15.965Z,6.10
2023-01-17T13:43:17.619Z,6.30
2023-01-17T13:45:58.369Z,3.47
2023-01-17T13:48:49.346Z,4.87
2023-01-17T13:51:34.168Z,4.63
2023-01-17T13:54:05.335Z,4.97
2023-01-17T13:56:41.371Z,4.97
2023-01-17T13:59:40.003Z,5.50
2023-01-17T14:02:45.992Z,4.33
2023-01-17T14:05:46.292Z,2.90
2023-01-17T14:08:25.396Z,3.30
2023-01-17T14:11:13.371Z,3.30
2023-01-17T14:13:53.523Z,2.77
2023-01-17T14:16:36.379Z,4.20
2023-01-17T14:19:15.286Z,4.83
2023-01-17T14:21:57.153Z,4.57
2023-01-17T14:24:28.102Z,1.40
2023-01-17T14:27:25.440Z,3.13
2023-01-17T14:30:07.668Z,2.13
2023-01-17T14:32:45.387Z,2.72
2023-01-17T14:35:39.842Z,1.97
2023-01-17T14:38:32.881Z,2.40
2023-01-17T14:41:14.342Z,1.67
2023-01-17T14:43:49.633Z,1.67
2023-01-17T14:46:35.909Z,1.43
2023-01-17T14:49:07.329Z,2.77
2023-01-17T14:51:38.504Z,2.00
2023-01-17T14:54:29.100Z,3.53
2023-01-17T14:57:28.765Z,3.13
2023-01-17T15:00:24.440Z,4.03
2023-01-17T15:03:02.837Z,5.00
2023-01-17T15:05:34.139Z,3.13
2023-01-17T15:08:08.312Z,2.28
2023-01-17T15:10:37.356Z,2.00
2023-01-17T15:13:13.579Z,2.40
2023-01-17T15:15:52.573Z,1.03
2023-01-17T15:18:35.059Z,2.23
2023-01-17T15:21:10.680Z,2.60
2023-01-17T15:24:03.284Z,2.50
2023-01-17T15:26:43.240Z,2.20
2023-01-17T15:29:27.990Z,2.80
2023-01-17T15:32:07.463Z,1.43
2023-01-17T15:34:48.411Z,1.90
2023-01-17T15:37:50.369Z,2.70
2023-01-17T15:40:31.287Z,2.63
2023-01-17T15:43:10.857Z,3.23
2023-01-17T15:46:00.369Z,3.07
2023-01-17T15:48:54.265Z,2.77
2023-01-17T15:51:44.946Z,3.67
2023-01-17T15:54:37.773Z,3.92
2023-01-17T15:57:31.249Z,5.30
2023-01-17T16:00:26.041Z,5.33
2023-01-17T16:03:07.083Z,5.57
2023-01-17T16:05:49.361Z,4.13
2023-01-17T16:08:45.341Z,4.60
2023-01-17T16:11:22.235Z,4.77
2023-01-17T16:14:00.026Z,4.70
2023-01-17T16:16:31.076Z,4.00
2023-01-17T16:19:05.480Z,4.77
2023-01-17T16:21:36.005Z,4.90
2023-01-17T16:24:16.127Z,6.27
2023-01-17T16:26:53.948Z,6.37
2023-01-17T16:29:31.450Z,3.67
2023-01-17T16:32:09.335Z,5.17
2023-01-17T16:34:45.873Z,6.70
2023-01-17T16:37:19.731Z,4.83
2023-01-17T16:39:55.462Z,6.13
2023-01-17T16:45:15.597Z,5.27
2023-01-17T16:47:54.341Z,6.77
2023-01-17T16:50:25.579Z,5.53
2023-01-17T16:53:06.444Z,5.97
2023-01-17T16:55:42.441Z,3.83
2023-01-17T16:58:28.301Z,5.00
2023-01-17T17:01:07.551Z,4.57
2023-01-17T17:03:41.821Z,3.27
2023-01-17T17:06:12.599Z,4.47
2023-01-17T17:08:46.997Z,4.90
2023-01-17T17:11:20.277Z,5.47
2023-01-17T17:14:01.037Z,4.43
2023-01-17T17:16:34.645Z,5.67
2023-01-17T17:19:27.423Z,3.60
2023-01-17T17:21:59.453Z,4.63
2023-01-17T17:24:39.039Z,4.63
2023-01-17T17:27:07.897Z,5.53
2023-01-17T17:29:45.918Z,4.03
2023-01-17T17:32:19.519Z,4.53
2023-01-17T17:35:01.925Z,4.93
2023-01-17T17:37:36.941Z,4.37
2023-01-17T17:40:14.922Z,5.47
2023-01-17T17:42:54.605Z,5.43
2023-01-17T17:48:17.556Z,4.63
2023-01-17T17:50:57.222Z,3.17
2023-01-17T17:53:32.606Z,3.85
2023-01-17T17:56:09.795Z,3.23
